RYR92YX LDDU-EGSS
Flight info
| Callsign | RYR92YX |
|---|---|
| Flight time | N/A |
| Altitude | 38000 |
| Route | AMUGO1W/11 AMUGO DCT EBITA DCT PEVAL DCT MOBDO DCT SOTOV DCT KPT L608 KUNOD DCT KRH DCT LIRSU DCT ARCKY DCT BUB L608 SUMUM Y6 TOSVA |
| Aircraft | B738/M-SDE2E3FGHIRWXY/LB1 |
Departure
| Time | N/A |
|---|---|
| Airport | Dubrovnik Ruđer Bošković Airport (LDDU) |
Arrival
| Time | 2026-04-30 18:08 |
|---|---|
| Airport | London Stansted Airport (EGSS) |
| Time | Latitude | Longitude | Altitude | Speed | Heading |
|---|---|---|---|---|---|
| 2026-04-30 17:39 | 51.47332 | 2.82372 | 30571 ft | 450 kts | 289° |
| 2026-04-30 17:41 | 51.55808 | 2.45587 | 26637 ft | 425 kts | 289° |
| 2026-04-30 17:42 | 51.57815 | 2.36730 | 25705 ft | 419 kts | 289° |
| 2026-04-30 17:42 | 51.60799 | 2.23617 | 24318 ft | 412 kts | 289° |
| 2026-04-30 17:43 | 51.62826 | 2.14997 | 23320 ft | 412 kts | 296° |
| 2026-04-30 17:44 | 51.69000 | 2.06090 | 21924 ft | 400 kts | 334° |
| 2026-04-30 17:44 | 51.76397 | 1.99986 | 20612 ft | 396 kts | 333° |
| 2026-04-30 17:46 | 51.88317 | 1.89759 | 18506 ft | 389 kts | 327° |
| 2026-04-30 17:47 | 51.94113 | 1.75711 | 17005 ft | 372 kts | 296° |
| 2026-04-30 17:48 | 51.98915 | 1.60840 | 15022 ft | 370 kts | 297° |
| 2026-04-30 17:48 | 52.02504 | 1.49858 | 13735 ft | 364 kts | 297° |
| 2026-04-30 17:49 | 52.07162 | 1.35552 | 12094 ft | 353 kts | 296° |
| 2026-04-30 17:50 | 52.11368 | 1.21833 | 11242 ft | 319 kts | 277° |
| 2026-04-30 17:51 | 52.10398 | 1.11518 | 11235 ft | 304 kts | 250° |
| 2026-04-30 17:52 | 52.08652 | 1.01522 | 10670 ft | 309 kts | 250° |
| 2026-04-30 17:53 | 52.05909 | 0.85289 | 9443 ft | 293 kts | 250° |
| 2026-04-30 17:54 | 52.03732 | 0.72423 | 9235 ft | 294 kts | 250° |
| 2026-04-30 17:55 | 52.01567 | 0.59658 | 9231 ft | 294 kts | 252° |
| 2026-04-30 17:56 | 52.01282 | 0.46261 | 8943 ft | 291 kts | 261° |
| 2026-04-30 17:57 | 52.00807 | 0.36436 | 7944 ft | 290 kts | 261° |
| 2026-04-30 17:58 | 51.99548 | 0.27078 | 7030 ft | 280 kts | 246° |
| 2026-04-30 17:59 | 51.96150 | 0.16099 | 5823 ft | 269 kts | 231° |
| 2026-04-30 18:00 | 51.91368 | 0.07201 | 4632 ft | 255 kts | 207° |
| 2026-04-30 18:00 | 51.86751 | 0.03338 | 3871 ft | 245 kts | 201° |
| 2026-04-30 18:01 | 51.83709 | 0.01024 | 3440 ft | 238 kts | 200° |
| 2026-04-30 18:02 | 51.79376 | -0.02303 | 2863 ft | 229 kts | 197° |
| 2026-04-30 18:02 | 51.76046 | 0.00363 | 2516 ft | 187 kts | 104° |
| 2026-04-30 18:03 | 51.76781 | 0.05555 | 2515 ft | 172 kts | 56° |
| 2026-04-30 18:04 | 51.79361 | 0.09761 | 2483 ft | 178 kts | 51° |
| 2026-04-30 18:05 | 51.82975 | 0.15185 | 1638 ft | 167 kts | 52° |
| 2026-04-30 18:06 | 51.86054 | 0.19808 | 832 ft | 135 kts | 49° |
| 2026-04-30 18:07 | 51.88498 | 0.23473 | 335 ft | 81 kts | 43° |
| 2026-04-30 18:08 | 51.88841 | 0.24043 | 336 ft | 10 kts | 63° |
| 2026-04-30 18:09 | 51.88918 | 0.24431 | 346 ft | 9 kts | 76° |
| 2026-04-30 18:10 | 51.89011 | 0.24729 | 342 ft | 8 kts | 43° |
| 2026-04-30 18:11 | 51.89167 | 0.24959 | 342 ft | 7 kts | 43° |
| 2026-04-30 18:11 | 51.89226 | 0.25193 | 350 ft | 9 kts | 123° |
| 2026-04-30 18:12 | 51.89136 | 0.25418 | 338 ft | 7 kts | 97° |
| 2026-04-30 18:13 | 51.89158 | 0.25490 | 353 ft | 0 kts | 52° |